createdAt,value
2022-08-30T00:04:57.011Z,14.32
2022-08-30T00:09:57.014Z,14.13
2022-08-30T00:14:57.108Z,14.28
2022-08-30T00:19:59.928Z,14.21
2022-08-30T00:24:56.820Z,13.96
2022-08-30T00:29:56.786Z,14.43
2022-08-30T00:34:56.513Z,14.32
2022-08-30T00:39:56.529Z,14.28
2022-08-30T00:44:56.391Z,14.32
2022-08-30T00:49:56.435Z,14.06
2022-08-30T00:54:56.298Z,14.25
2022-08-30T00:59:56.346Z,13.74
2022-08-30T01:04:56.403Z,13.71
2022-08-30T01:09:56.409Z,13.87
2022-08-30T01:16:28.399Z,14.04
2022-08-30T01:21:28.088Z,13.46
2022-08-30T01:26:28.067Z,13.46
2022-08-30T01:31:27.980Z,13.81
2022-08-30T01:36:27.859Z,13.70
2022-08-30T01:41:27.728Z,13.98
2022-08-30T01:46:27.893Z,14.29
2022-08-30T01:51:27.617Z,13.71
2022-08-30T01:56:27.434Z,13.73
2022-08-30T02:01:27.385Z,13.84
2022-08-30T02:06:30.934Z,13.54
2022-08-30T02:11:27.464Z,12.96
2022-08-30T02:16:27.344Z,13.62
2022-08-30T02:21:27.136Z,13.41
2022-08-30T02:26:27.179Z,13.15
2022-08-30T02:31:27.059Z,12.96
2022-08-30T02:36:27.286Z,13.21
2022-08-30T02:43:15.666Z,13.11
2022-08-30T02:48:23.377Z,13.30
2022-08-30T03:04:35.638Z,13.02
2022-08-30T03:09:35.408Z,12.75
2022-08-30T03:14:35.759Z,12.67
2022-08-30T03:19:35.116Z,12.66
2022-08-30T03:24:35.467Z,12.87
2022-08-30T03:29:35.206Z,13.03
2022-08-30T03:34:35.071Z,12.96
2022-08-30T03:43:30.959Z,12.66
2022-08-30T03:48:30.588Z,12.82
2022-08-30T03:53:30.764Z,12.97
2022-08-30T03:58:30.582Z,12.82
2022-08-30T04:03:30.796Z,12.97
2022-08-30T04:12:25.099Z,12.96
2022-08-30T04:17:25.008Z,12.79
2022-08-30T04:22:25.264Z,12.87
2022-08-30T04:27:24.839Z,12.88
2022-08-30T04:32:24.801Z,13.00
2022-08-30T04:37:25.032Z,12.60
2022-08-30T04:42:24.823Z,12.69
2022-08-30T04:47:24.891Z,12.95
2022-08-30T04:52:24.867Z,13.32
2022-08-30T04:57:24.536Z,13.88
2022-08-30T05:02:27.409Z,14.35
2022-08-30T05:07:24.432Z,14.07
2022-08-30T05:12:24.262Z,15.60
2022-08-30T05:17:24.019Z,16.14
2022-08-30T05:33:28.482Z,18.55
2022-08-30T05:43:35.296Z,19.55
2022-08-30T05:48:35.315Z,20.24
2022-08-30T05:53:35.217Z,20.59
2022-08-30T05:58:35.182Z,20.98
2022-08-30T06:03:35.121Z,21.13
2022-08-30T06:11:41.509Z,20.43
2022-08-30T06:16:38.466Z,20.89
2022-08-30T06:21:37.746Z,20.87
2022-08-30T06:26:37.713Z,21.04
2022-08-30T06:31:37.523Z,20.69
2022-08-30T06:36:37.498Z,20.81
2022-08-30T06:44:33.934Z,21.44
2022-08-30T06:49:32.804Z,21.41
2022-08-30T06:54:32.795Z,21.92
2022-08-30T07:26:36.882Z,21.71
2022-08-30T07:33:54.747Z,21.66
2022-08-30T07:41:25.454Z,22.41
2022-08-30T07:50:22.566Z,22.31
2022-08-30T07:55:22.726Z,22.75
2022-08-30T08:00:25.179Z,22.71
2022-08-30T08:14:58.642Z,22.69
2022-08-30T08:22:21.947Z,23.01
2022-08-30T08:29:14.837Z,23.09
2022-08-30T08:34:14.939Z,22.93
2022-08-30T08:39:15.630Z,22.82
2022-08-30T08:48:58.502Z,22.39
2022-08-30T08:53:47.316Z,22.56
2022-08-30T08:58:38.692Z,22.82
2022-08-30T09:03:37.707Z,22.87
2022-08-30T09:08:37.597Z,23.08
2022-08-30T09:13:37.771Z,23.12
2022-08-30T09:18:37.494Z,23.15
2022-08-30T09:23:37.435Z,22.89
2022-08-30T09:28:37.292Z,23.19
2022-08-30T09:33:37.306Z,23.42
2022-08-30T09:38:40.256Z,23.40
2022-08-30T09:43:37.147Z,23.35
2022-08-30T09:48:37.094Z,23.55
2022-08-30T09:53:36.966Z,23.75
2022-08-30T09:58:39.855Z,23.86
2022-08-30T10:03:40.511Z,23.72
2022-08-30T10:08:36.830Z,23.82
2022-08-30T10:13:36.702Z,24.00
2022-08-30T10:18:37.152Z,24.10
2022-08-30T10:23:36.956Z,24.12
2022-08-30T10:28:36.948Z,24.44
2022-08-30T10:33:36.614Z,24.01
2022-08-30T10:38:39.450Z,24.31
2022-08-30T10:43:36.449Z,24.32
2022-08-30T10:48:36.408Z,24.64
2022-08-30T10:53:36.284Z,24.76
2022-08-30T10:58:36.225Z,25.42
2022-08-30T11:03:36.049Z,25.16
2022-08-30T11:08:37.287Z,25.31
2022-08-30T11:13:36.119Z,24.95
2022-08-30T11:18:35.927Z,25.16
2022-08-30T11:23:35.961Z,25.38
2022-08-30T11:28:35.878Z,25.47
2022-08-30T11:33:35.800Z,25.69
2022-08-30T11:38:38.821Z,25.83
2022-08-30T11:43:36.840Z,25.72
2022-08-30T11:48:46.963Z,25.93
2022-08-30T11:54:51.007Z,26.36
2022-08-30T11:59:48.061Z,25.93
2022-08-30T12:04:46.983Z,26.01
2022-08-30T12:09:47.711Z,25.97
2022-08-30T12:14:46.681Z,26.22
2022-08-30T12:19:49.562Z,26.50
2022-08-30T12:24:54.747Z,27.33
2022-08-30T12:29:46.563Z,26.64
2022-08-30T12:34:46.555Z,26.64
2022-08-30T12:39:46.383Z,25.97
2022-08-30T12:44:50.498Z,25.02
2022-08-30T12:49:46.317Z,24.82
2022-08-30T12:54:46.252Z,25.16
2022-08-30T12:59:51.868Z,25.32
2022-08-30T13:04:47.172Z,25.87
2022-08-30T13:09:46.124Z,26.31
2022-08-30T13:14:46.517Z,26.36
2022-08-30T13:19:45.936Z,26.12
2022-08-30T13:24:46.093Z,25.65
2022-08-30T13:29:45.837Z,25.31
2022-08-30T13:34:45.900Z,25.31
2022-08-30T13:39:45.752Z,25.53
2022-08-30T13:44:48.685Z,26.08
2022-08-30T13:49:53.786Z,25.90
2022-08-30T13:54:45.412Z,26.15
2022-08-30T13:59:53.389Z,26.43
2022-08-30T14:04:45.397Z,26.11
2022-08-30T14:09:45.201Z,26.04
2022-08-30T14:14:45.198Z,26.09
2022-08-30T14:19:46.065Z,26.58
2022-08-30T14:24:44.974Z,26.43
2022-08-30T14:29:45.165Z,26.73
2022-08-30T14:34:44.928Z,27.16
2022-08-30T14:39:44.909Z,26.92
2022-08-30T14:44:56.323Z,26.57
2022-08-30T14:49:45.822Z,25.56
2022-08-30T14:54:44.654Z,25.50
2022-08-30T14:59:44.503Z,25.30
2022-08-30T15:04:44.625Z,25.52
2022-08-30T15:09:44.488Z,26.65
2022-08-30T15:14:44.379Z,27.09
2022-08-30T15:19:44.669Z,26.84
2022-08-30T15:24:49.060Z,26.79
2022-08-30T15:29:44.360Z,27.69
2022-08-30T15:36:01.809Z,26.43
2022-08-30T15:41:01.647Z,25.77
2022-08-30T15:46:01.703Z,26.04
2022-08-30T15:51:01.432Z,25.83
2022-08-30T15:56:01.406Z,25.46
2022-08-30T16:01:01.349Z,25.50
2022-08-30T16:06:01.327Z,25.27
2022-08-30T16:11:09.098Z,25.74
2022-08-30T16:16:01.166Z,25.01
2022-08-30T16:21:01.139Z,25.12
2022-08-30T16:26:17.230Z,25.27
2022-08-30T16:31:08.028Z,24.77
2022-08-30T16:36:08.253Z,24.67
2022-08-30T16:41:00.850Z,24.34
2022-08-30T16:46:01.227Z,24.29
2022-08-30T16:51:00.977Z,24.22
2022-08-30T16:56:00.619Z,24.26
2022-08-30T17:01:00.716Z,24.22
2022-08-30T17:06:00.488Z,24.17
2022-08-30T17:11:00.366Z,23.97
2022-08-30T17:16:00.416Z,23.76
2022-08-30T17:21:00.274Z,23.80
2022-08-30T17:26:03.276Z,23.85
2022-08-30T17:31:00.245Z,23.29
2022-08-30T17:36:00.153Z,23.72
2022-08-30T17:41:00.105Z,23.34
2022-08-30T17:46:00.618Z,23.38
2022-08-30T17:50:59.863Z,23.31
2022-08-30T17:55:59.911Z,23.29
2022-08-30T18:00:59.900Z,22.90
2022-08-30T18:05:59.780Z,22.94
2022-08-30T18:10:59.941Z,22.92
2022-08-30T18:16:00.049Z,22.75
2022-08-30T18:21:00.003Z,22.60
2022-08-30T18:26:09.954Z,22.56
2022-08-30T18:30:59.469Z,21.30
2022-08-30T18:35:59.575Z,21.14
2022-08-30T18:40:59.309Z,21.04
2022-08-30T18:46:00.023Z,20.81
2022-08-30T18:50:59.054Z,20.49
2022-08-30T18:55:59.198Z,20.47
2022-08-30T19:00:58.929Z,20.34
2022-08-30T19:05:59.007Z,20.08
2022-08-30T19:11:04.647Z,19.79
2022-08-30T19:16:00.152Z,19.87
2022-08-30T19:20:58.915Z,19.24
2022-08-30T19:26:02.141Z,18.79
2022-08-30T19:30:58.689Z,18.52
2022-08-30T19:35:58.602Z,18.82
2022-08-30T19:40:58.488Z,19.02
2022-08-30T19:45:58.359Z,19.11
2022-08-30T19:50:58.286Z,19.29
2022-08-30T19:55:59.159Z,19.18
2022-08-30T20:01:11.685Z,19.13
2022-08-30T20:05:59.129Z,18.47
2022-08-30T20:10:58.054Z,18.34
2022-08-30T20:15:58.227Z,18.17
2022-08-30T20:20:57.967Z,18.02
2022-08-30T20:26:00.958Z,18.02
2022-08-30T20:30:57.906Z,17.67
2022-08-30T20:35:57.718Z,17.84
2022-08-30T20:40:57.674Z,17.95
2022-08-30T20:46:05.495Z,18.04
2022-08-30T20:50:57.766Z,17.70
2022-08-30T20:55:57.602Z,17.73
2022-08-30T21:01:06.316Z,17.92
2022-08-30T21:05:57.399Z,18.09
2022-08-30T21:10:57.474Z,18.18
2022-08-30T21:16:00.695Z,18.24
2022-08-30T21:20:58.171Z,18.10
2022-08-30T21:26:00.075Z,17.97
2022-08-30T21:30:57.286Z,17.73
2022-08-30T21:35:56.927Z,17.79
2022-08-30T21:40:56.822Z,17.74
2022-08-30T21:45:56.927Z,17.91
2022-08-30T21:50:56.878Z,17.92
2022-08-30T21:55:56.797Z,17.54
2022-08-30T22:00:56.659Z,16.95
2022-08-30T22:05:58.248Z,17.08
2022-08-30T22:10:56.644Z,17.14
2022-08-30T22:15:56.444Z,16.86
2022-08-30T22:20:56.342Z,16.59
2022-08-30T22:25:59.655Z,16.98
2022-08-30T22:30:56.189Z,16.89
2022-08-30T22:35:56.358Z,17.25
2022-08-30T22:40:56.073Z,17.32
2022-08-30T22:45:56.139Z,16.92
2022-08-30T22:50:56.060Z,16.92
2022-08-30T22:55:55.930Z,17.08
2022-08-30T23:00:55.982Z,17.10
2022-08-30T23:05:55.815Z,16.89
2022-08-30T23:10:55.954Z,16.90
2022-08-30T23:15:55.865Z,17.11
2022-08-30T23:20:55.545Z,16.93
2022-08-30T23:25:58.726Z,17.17
2022-08-30T23:30:55.450Z,16.96
2022-08-30T23:35:55.424Z,17.13
2022-08-30T23:40:55.595Z,17.28
2022-08-30T23:45:55.429Z,17.36
2022-08-30T23:50:55.239Z,17.30
2022-08-30T23:55:55.119Z,17.30
